createdAt,value
2018-10-03T00:00:37.664Z,2.90
2018-10-03T00:05:40.857Z,2.33
2018-10-03T00:10:44.036Z,2.83
2018-10-03T00:15:47.216Z,3.73
2018-10-03T00:20:50.392Z,3.23
2018-10-03T00:25:53.560Z,3.23
2018-10-03T00:30:56.787Z,3.20
2018-10-03T00:36:00.025Z,3.87
2018-10-03T00:41:03.224Z,3.20
2018-10-03T00:46:06.877Z,3.13
2018-10-03T00:51:10.121Z,3.43
2018-10-03T00:56:13.321Z,2.70
2018-10-03T01:01:16.563Z,2.33
2018-10-03T01:06:19.800Z,3.10
2018-10-03T01:11:23.008Z,2.50
2018-10-03T01:16:26.232Z,3.57
2018-10-03T01:21:29.470Z,3.60
2018-10-03T01:26:32.638Z,3.73
2018-10-03T01:31:35.822Z,2.87
2018-10-03T01:36:39.028Z,3.37
2018-10-03T01:41:42.237Z,4.73
2018-10-03T01:46:45.503Z,4.10
2018-10-03T01:51:48.756Z,3.90
2018-10-03T01:56:51.976Z,3.37
2018-10-03T02:01:55.224Z,4.23
2018-10-03T02:06:58.510Z,5.10
2018-10-03T02:12:01.751Z,4.60
2018-10-03T02:17:05.059Z,4.33
2018-10-03T02:22:08.269Z,4.20
2018-10-03T02:27:11.530Z,3.93
2018-10-03T02:32:14.787Z,4.40
2018-10-03T02:37:18.016Z,5.10
2018-10-03T02:42:21.244Z,3.70
2018-10-03T02:47:24.428Z,4.87
2018-10-03T02:52:27.657Z,4.60
2018-10-03T02:57:30.871Z,2.90
2018-10-03T03:02:34.088Z,4.20
2018-10-03T03:07:37.417Z,4.43
2018-10-03T03:12:40.587Z,3.43
2018-10-03T03:17:43.779Z,4.87
2018-10-03T03:22:47.032Z,4.67
2018-10-03T03:27:50.203Z,3.97
2018-10-03T03:32:53.434Z,4.00
2018-10-03T03:37:56.636Z,4.13
2018-10-03T03:42:59.932Z,3.90
2018-10-03T03:48:03.168Z,4.70
2018-10-03T03:53:06.504Z,4.67
2018-10-03T03:58:09.743Z,4.93
2018-10-03T04:03:13.001Z,4.90
2018-10-03T04:08:16.247Z,4.73
2018-10-03T04:13:19.503Z,4.90
2018-10-03T04:18:22.820Z,4.30
2018-10-03T04:23:26.072Z,4.93
2018-10-03T04:28:29.298Z,4.77
2018-10-03T04:33:32.626Z,4.33
2018-10-03T04:38:35.877Z,5.57
2018-10-03T04:43:39.100Z,4.57
2018-10-03T04:48:42.324Z,4.33
2018-10-03T04:53:45.527Z,4.40
2018-10-03T04:58:48.709Z,5.53
2018-10-03T05:03:51.914Z,4.87
2018-10-03T05:08:55.087Z,4.87
2018-10-03T05:13:58.302Z,4.03
2018-10-03T05:19:01.504Z,4.83
2018-10-03T05:24:04.728Z,4.97
2018-10-03T05:29:08.008Z,4.43
2018-10-03T05:34:11.183Z,3.60
2018-10-03T05:39:14.387Z,4.20
2018-10-03T05:44:17.573Z,5.47
2018-10-03T05:49:20.773Z,6.23
2018-10-03T05:54:24.001Z,4.70
2018-10-03T05:59:27.196Z,4.80
2018-10-03T06:04:30.410Z,4.80
2018-10-03T06:09:33.738Z,5.80
2018-10-03T06:14:36.994Z,4.33
2018-10-03T06:19:40.220Z,5.33
2018-10-03T06:24:43.419Z,4.67
2018-10-03T06:29:46.614Z,4.50
2018-10-03T06:34:49.812Z,5.13
2018-10-03T06:39:53.060Z,4.57
2018-10-03T06:44:56.371Z,5.70
2018-10-03T06:49:59.603Z,5.00
2018-10-03T06:55:02.871Z,5.10
2018-10-03T07:00:06.126Z,4.40
2018-10-03T07:05:09.396Z,5.40
2018-10-03T07:10:12.626Z,5.37
2018-10-03T07:15:15.878Z,4.53
2018-10-03T07:20:19.281Z,3.70
2018-10-03T07:25:22.455Z,5.07
2018-10-03T07:30:25.697Z,4.50
2018-10-03T07:35:28.931Z,4.80
2018-10-03T07:40:32.188Z,5.17
2018-10-03T07:45:35.431Z,5.37
2018-10-03T07:50:38.940Z,5.10
2018-10-03T07:55:42.203Z,4.80
2018-10-03T08:00:45.458Z,4.97
2018-10-03T08:05:48.936Z,4.10
2018-10-03T08:10:52.264Z,4.60
2018-10-03T08:15:55.687Z,5.83
2018-10-03T08:20:58.928Z,6.35
2018-10-03T08:26:02.363Z,5.57
2018-10-03T08:31:07.859Z,4.20
2018-10-03T08:36:11.233Z,4.37
2018-10-03T08:41:14.485Z,4.17
2018-10-03T08:46:19.858Z,3.17
2018-10-03T08:51:23.147Z,4.77
2018-10-03T08:56:26.375Z,3.40
2018-10-03T09:01:29.724Z,3.50
2018-10-03T09:06:33.018Z,4.67
2018-10-03T09:11:36.322Z,3.17
2018-10-03T09:16:39.515Z,3.20
2018-10-03T09:21:42.779Z,3.30
2018-10-03T09:26:46.000Z,3.17
2018-10-03T09:31:50.011Z,4.00
2018-10-03T09:36:53.273Z,3.07
2018-10-03T09:41:56.944Z,3.03
2018-10-03T09:47:00.180Z,3.37
2018-10-03T09:52:03.372Z,3.30
2018-10-03T09:57:06.579Z,4.00
2018-10-03T10:02:09.803Z,4.57
2018-10-03T10:07:12.988Z,3.13
2018-10-03T10:12:16.199Z,3.60
2018-10-03T10:17:19.375Z,3.13
2018-10-03T10:22:22.591Z,3.10
2018-10-03T10:27:25.818Z,3.30
2018-10-03T10:32:29.116Z,3.53
2018-10-03T10:37:32.205Z,2.70
2018-10-03T10:42:35.432Z,3.10
2018-10-03T10:47:38.615Z,3.17
2018-10-03T10:52:41.828Z,3.83
2018-10-03T10:57:45.003Z,3.10
2018-10-03T11:02:48.228Z,3.20
2018-10-03T11:07:51.743Z,2.80
2018-10-03T11:12:54.923Z,2.70
2018-10-03T11:17:58.169Z,3.47
2018-10-03T11:23:01.371Z,2.87
2018-10-03T11:28:04.615Z,2.97
2018-10-03T11:33:07.783Z,3.00
2018-10-03T11:38:11.060Z,2.70
2018-10-03T11:43:15.124Z,2.73
2018-10-03T11:48:18.349Z,4.20
2018-10-03T11:53:21.560Z,2.77
2018-10-03T11:58:24.743Z,2.50
2018-10-03T12:03:28.073Z,4.00
2018-10-03T12:08:31.171Z,3.60
2018-10-03T12:13:34.385Z,2.13
2018-10-03T12:18:37.608Z,3.20
2018-10-03T12:23:41.000Z,3.47
2018-10-03T12:28:44.200Z,2.83
2018-10-03T12:33:47.432Z,3.30
2018-10-03T12:38:50.656Z,2.40
2018-10-03T12:43:53.844Z,2.53
2018-10-03T12:48:57.093Z,2.47
2018-10-03T12:54:00.359Z,1.87
2018-10-03T12:59:03.633Z,2.93
2018-10-03T13:04:06.946Z,2.60
2018-10-03T13:09:12.464Z,2.27
2018-10-03T13:14:15.805Z,2.27
2018-10-03T13:19:18.959Z,2.80
2018-10-03T13:24:22.247Z,2.43
2018-10-03T13:29:25.392Z,2.00
2018-10-03T13:34:28.629Z,2.70
2018-10-03T13:39:32.917Z,2.57
2018-10-03T13:44:36.200Z,2.10
2018-10-03T13:49:39.571Z,3.17
2018-10-03T13:54:42.870Z,2.37
2018-10-03T13:59:46.120Z,2.40
2018-10-03T14:04:49.456Z,2.30
2018-10-03T14:09:52.703Z,2.30
2018-10-03T14:14:55.964Z,1.90
2018-10-03T14:19:59.289Z,2.50
2018-10-03T14:25:02.632Z,2.07
2018-10-03T14:30:06.765Z,2.30
2018-10-03T14:35:10.016Z,3.50
2018-10-03T14:40:13.291Z,2.90
2018-10-03T14:45:16.496Z,2.93
2018-10-03T14:50:19.708Z,2.80
2018-10-03T14:55:22.880Z,2.23
2018-10-03T15:00:26.112Z,1.80
2018-10-03T15:05:29.307Z,2.80
2018-10-03T15:10:32.499Z,2.17
2018-10-03T15:15:35.683Z,2.70
2018-10-03T15:20:38.900Z,3.17
2018-10-03T15:25:42.088Z,2.63
2018-10-03T15:30:45.362Z,3.23
2018-10-03T15:35:48.543Z,2.33
2018-10-03T15:40:51.847Z,1.70
2018-10-03T15:45:55.027Z,2.80
2018-10-03T15:50:58.244Z,2.67
2018-10-03T15:56:05.402Z,2.27
2018-10-03T16:01:08.609Z,2.10
2018-10-03T16:06:12.735Z,2.63
2018-10-03T16:11:16.021Z,2.13
2018-10-03T16:16:19.249Z,2.10
2018-10-03T16:21:22.432Z,2.53
2018-10-03T16:26:25.706Z,1.53
2018-10-03T16:31:28.802Z,2.23
2018-10-03T16:36:32.014Z,2.80
2018-10-03T16:41:35.208Z,2.10
2018-10-03T16:46:38.414Z,2.80
2018-10-03T16:51:41.618Z,1.80
2018-10-03T16:56:44.842Z,1.83
2018-10-03T17:01:48.033Z,2.13
2018-10-03T17:06:51.290Z,2.10
2018-10-03T17:11:54.458Z,1.93
2018-10-03T17:16:57.747Z,2.10
2018-10-03T17:22:01.366Z,2.13
2018-10-03T17:27:04.607Z,2.10
2018-10-03T17:32:07.806Z,2.40
2018-10-03T17:37:10.992Z,1.80
2018-10-03T17:42:14.177Z,1.77
2018-10-03T17:47:17.542Z,2.30
2018-10-03T17:52:20.728Z,2.03
2018-10-03T17:57:23.915Z,2.20
2018-10-03T18:02:27.103Z,2.10
2018-10-03T18:07:30.281Z,2.43
2018-10-03T18:12:33.467Z,2.30
2018-10-03T18:17:36.840Z,2.00
2018-10-03T18:22:40.039Z,2.20
2018-10-03T18:27:43.297Z,2.43
2018-10-03T18:32:46.464Z,2.67
2018-10-03T18:37:49.672Z,2.50
2018-10-03T18:42:52.990Z,2.77
2018-10-03T18:47:59.790Z,3.67
2018-10-03T18:53:02.988Z,2.97
2018-10-03T18:58:06.187Z,3.00
2018-10-03T19:03:09.380Z,2.87
2018-10-03T19:08:12.794Z,3.00
2018-10-03T19:13:16.004Z,3.00
2018-10-03T19:18:19.180Z,2.90
2018-10-03T19:23:22.343Z,3.00
2018-10-03T19:28:25.600Z,2.57
2018-10-03T19:33:28.965Z,3.53
2018-10-03T19:38:32.139Z,2.83
2018-10-03T19:43:35.331Z,3.70
2018-10-03T19:48:38.779Z,4.27
2018-10-03T19:53:42.027Z,3.83
2018-10-03T19:58:45.435Z,5.33
2018-10-03T20:03:48.846Z,4.10
2018-10-03T20:08:52.048Z,4.20
2018-10-03T20:13:55.387Z,4.83
2018-10-03T20:18:58.727Z,4.70
2018-10-03T20:24:02.160Z,4.57
2018-10-03T20:29:05.621Z,3.47
2018-10-03T20:34:08.877Z,4.00
2018-10-03T20:39:12.100Z,3.60
2018-10-03T20:44:15.302Z,3.73
2018-10-03T20:49:18.486Z,3.83
2018-10-03T20:54:21.716Z,3.93
2018-10-03T20:59:24.851Z,4.17
2018-10-03T21:04:28.121Z,4.30
2018-10-03T21:09:31.296Z,4.73
2018-10-03T21:14:34.477Z,4.23
2018-10-03T21:19:37.665Z,3.80
2018-10-03T21:24:40.851Z,4.10
2018-10-03T21:29:44.100Z,4.20
2018-10-03T21:34:47.283Z,3.43
2018-10-03T21:39:50.479Z,4.23
2018-10-03T21:44:53.785Z,4.57
2018-10-03T21:49:57.040Z,4.03
2018-10-03T21:55:00.371Z,3.93
2018-10-03T22:00:03.644Z,4.97
2018-10-03T22:05:08.791Z,3.57
2018-10-03T22:10:12.060Z,3.70
2018-10-03T22:15:15.290Z,3.50
2018-10-03T22:20:18.556Z,4.43
2018-10-03T22:25:21.787Z,3.87
2018-10-03T22:30:25.017Z,3.73
2018-10-03T22:35:28.251Z,3.63
2018-10-03T22:40:31.503Z,4.13
2018-10-03T22:45:34.759Z,3.00
2018-10-03T22:50:38.039Z,4.10
2018-10-03T22:55:41.278Z,4.10
2018-10-03T23:00:44.524Z,4.00
2018-10-03T23:05:47.791Z,4.30
2018-10-03T23:10:51.067Z,4.37
2018-10-03T23:15:54.319Z,4.27
2018-10-03T23:20:58.546Z,3.40
2018-10-03T23:26:01.800Z,3.77
2018-10-03T23:31:05.091Z,3.50
2018-10-03T23:36:08.324Z,4.50
2018-10-03T23:41:11.569Z,3.57
2018-10-03T23:46:14.835Z,4.47
2018-10-03T23:51:18.091Z,3.63
2018-10-03T23:56:21.336Z,3.80
